Afton, CA

8:28 PM PST on February 07, 2016 (GMT -0800)
willows | | Change Station
CLOSE
Current Station
Personal Weather Station
Location: Willows, CA
Elevation: 131 ft
Nearby Weather Stations

Elev 131 ft 39.54 °N, 122.20 °W | Updated 17 seconds ago

Clear
Clear
67.5 °F
Feels Like 67.5 °F
N
5.3
Wind Variable Wind from NW
Gusts 5.8 mph

Today
High -- | Low -- °F
--% Chance of Precip.
Yesterday
High -- | Low -- °F
Precip. -- in
Pressure 30.24 in
Visibility 10.0 miles
Clouds Clear
Dew Point 44 °F
Humidity 43%
Rainfall 0.00 in
Snow Depth Not available.
7:09 AM 5:34 PM
Waning Crescent, 0% visible
METAR KOVE 080353Z AUTO 02016G25KT 10SM CLR 21/03 A3023 RMK AO2 PK WND 03026/0313 SLP238 T02060033
Pressure 30.24 in
Visibility 10.0 miles
Clouds Clear
Dew Point 44 °F
Humidity 43%
Rainfall 0.00 in
Snow Depth Not available.
7:09 AM 5:34 PM
Waning Crescent, 0% visible
METAR KOVE 080353Z AUTO 02016G25KT 10SM CLR 21/03 A3023 RMK AO2 PK WND 03026/0313 SLP238 T02060033

10-Day Weather Forecast

Almanac

Astronomy

Feb. 07, 2016 Rise Set
Actual Time
Civil Twilight
Nautical Twilight
Astronomical Twilight
Moon
Length of Visible Light
Length of Day
Tomorrow will be .
, % of the Moon is Illuminated

Today's Extremes

State Highs State Lows

Community

WunderPhotos

Upload Photos

1,891,379 photos uploaded!

WunderBlog® & News

Nearby

Air Quality

  Air Quality AQ Index Pollutant
Not available.

Snow Depth

Station Depth Elevation

Earthquake Activity

City Distance Mag. Time & Date
Minimum magnitude displayed is 2.5.

Coastal Water Temperatures

Place Temperature

Stations

Nearby Weather Stations

Station Location Temp. Windchill Dew Point Humidity Wind Precip. Elev Updated Type
                   

Watches & Warnings

There are currently no watches in effect.